Latest Weather Observations for Bougainville Reef

IDQ60801

Issued at 8:05 pm EST Tuesday 21 October 2014 (issued every 30 minutes, with the page automatically refreshed every 10 minutes)

About weather observations | Map of weather stations | Latest weather observations for QLD | Other Formats
Station Details ID: 200840 Name: BOUGAINVILLE REEF Lat: -15.49 Lon: 147.12 Height: 0.0 m
Data from the previous 72 hours. | See also: Recent months for locations in Queensland
Date/Time
EST
Temp
°C
App
Temp
°C
Dew
Point
Rel
Hum
%
Delta-T
°C
Wind Press
QNH
hPa
Press
MSL
hPa
Rain
since 9 am
mm
Dir
 
Spd
km/h
Gust
km/h
Spd
kts
Gust
kts
21/08:00pm 24.7 - - - - SE 43 57 23 31 1017.3 1017.1 -
21/07:56pm 24.8 - - - - SE 39 57 21 31 1017.2 - -
21/07:54pm 24.9 - - - - E 46 57 25 31 1017.2 - -
21/07:30pm 24.9 - - - - SE 46 56 25 30 1017.1 - -
21/07:00pm 24.6 - - - - E 37 56 20 30 1016.8 1016.7 -
21/06:30pm 24.2 - - - - ESE 46 59 25 32 1016.5 - -
21/06:00pm 24.6 - - - - ESE 43 67 23 36 1016.2 1015.9 -
21/05:55pm 24.3 - - - - ESE 43 63 23 34 1016.0 - -
21/05:48pm 24.9 - - - - ESE 41 54 22 29 1015.9 - -
21/05:43pm 24.6 - - - - E 46 54 25 29 1015.8 - -
21/05:42pm 24.6 - - - - ESE 46 54 25 29 1015.8 - -
21/05:40pm 24.3 - - - - NE 46 52 25 28 1015.8 - -
21/05:39pm 24.3 - - - - E 39 48 21 26 1015.9 - -
21/05:30pm 23.7 - - - - SSE 39 54 21 29 1016.0 - -
21/05:21pm 23.8 - - - - SSE 44 54 24 29 1016.0 - -
21/05:19pm 23.9 - - - - ESE 37 50 20 27 1016.0 - -
21/05:15pm 24.0 - - - - NE 30 50 16 27 1016.0 - -
21/05:00pm 24.0 - - - - E 35 56 19 30 1015.7 1015.5 -
21/04:56pm 24.5 - - - - ESE 32 50 17 27 1015.6 - -
21/04:35pm 24.3 - - - - ESE 33 52 18 28 1015.4 - -
21/04:33pm 24.2 - - - - ENE 37 52 20 28 1015.4 - -
21/04:30pm 24.5 - - - - ESE 35 52 19 28 1015.5 - -
21/04:27pm 24.3 - - - - E 37 46 20 25 1015.4 - -
21/04:00pm 24.2 - - - - SSE 35 54 19 29 1015.2 1015.3 -
21/03:55pm 24.3 - - - - SSE 35 54 19 29 1015.3 - -
21/03:30pm 24.7 - - - - SSE 41 52 22 28 1015.4 - -
21/03:16pm 24.8 - - - - SSE 35 54 19 29 1015.5 - -
21/03:00pm 24.9 - - - - SSE 37 50 20 27 1015.5 1015.4 -
21/02:30pm 24.8 - - - - SSE 37 50 20 27 1015.7 - -
21/02:00pm 24.8 - - - - SSE 39 50 21 27 1015.8 1015.8 -
21/01:43pm 25.0 - - - - SSE 35 52 19 28 1015.9 - -
21/01:37pm 24.8 - - - - ESE 41 52 22 28 1015.8 - -
21/01:30pm 24.9 - - - - SSE 39 50 21 27 1015.9 - -
21/01:27pm 25.0 - - - - SSE 39 50 21 27 1015.9 - -
21/01:25pm 24.8 - - - - ESE 41 48 22 26 1015.9 - -
21/01:00pm 24.8 - - - - SE 41 50 22 27 1016.1 1016.2 -
21/12:35pm 24.8 - - - - SSE 43 50 23 27 1016.5 - -
21/12:30pm 24.7 - - - - ESE 41 50 22 27 1016.6 - -
21/12:29pm 24.7 - - - - E 41 50 22 27 1016.6 - -
21/12:12pm 24.9 - - - - SE 41 50 22 27 1016.9 - -
21/12:00pm 24.8 - - - - SE 37 48 20 26 1017.0 1017.1 -
21/11:58am 24.7 - - - - E 35 46 19 25 1017.1 - -
21/11:30am 24.9 - - - - SE 39 50 21 27 1017.5 - -
21/11:00am 24.8 - - - - SE 37 48 20 26 1017.7 1017.6 -
21/10:52am 24.7 - - - - SSE 39 48 21 26 1017.6 - -
21/10:39am 24.9 - - - - ESE 37 46 20 25 1017.7 - -
21/10:36am 24.8 - - - - ENE 41 48 22 26 1017.6 - -
21/10:30am 24.7 - - - - SE 41 48 22 26 1017.7 - -
21/10:06am 24.8 - - - - SE 39 50 21 27 1017.8 - -
21/10:02am 24.8 - - - - E 41 50 22 27 1017.8 - -
21/10:00am 24.7 - - - - ESE 37 50 20 27 1017.8 1017.7 -
21/09:55am 25.0 - - - - NE 39 50 21 27 1017.8 - -
21/09:50am 24.7 - - - - ESE 37 50 20 27 1017.8 - -
21/09:46am 25.0 - - - - E 35 48 19 26 1017.8 - -
21/09:30am 25.1 - - - - NE 41 50 22 27 1017.7 - -
21/09:29am 24.9 - - - - NNE 41 50 22 27 1017.7 - -
21/09:00am 24.6 - - - - ESE 33 50 18 27 1017.6 1017.5 -
21/08:58am 24.6 - - - - ESE 39 48 21 26 1017.6 - -
21/08:53am 24.4 - - - - SSE 28 44 15 24 1017.6 - -
21/08:30am 24.7 - - - - ESE 37 50 20 27 1017.3 - -
21/08:28am 24.8 - - - - ENE 39 48 21 26 1017.3 - -
21/08:23am 24.8 - - - - ESE 37 46 20 25 1017.3 - -
21/08:18am 24.9 - - - - SE 33 48 18 26 1017.3 - -
21/08:16am 24.9 - - - - E 39 48 21 26 1017.2 - -
21/08:00am 24.7 - - - - E 41 46 22 25 1017.2 1017.1 -
21/07:52am 24.8 - - - - SE 37 48 20 26 1017.2 - -
21/07:50am 24.7 - - - - E 41 50 22 27 1017.2 - -
21/07:30am 24.7 - - - - SE 39 48 21 26 1016.9 - -
21/07:18am 24.7 - - - - SE 37 48 20 26 1016.9 - -
21/07:16am 24.6 - - - - E 39 48 21 26 1016.8 - -
21/07:00am 24.8 - - - - SSE 35 50 19 27 1016.7 1016.5 -
21/06:33am 24.5 - - - - SE 37 46 20 25 1016.4 - -
21/06:30am 24.7 - - - - ESE 35 43 19 23 1016.4 - -
21/06:28am 24.7 - - - - ESE 37 46 20 25 1016.3 - -
21/06:15am 24.5 - - - - SE 35 44 19 24 1016.2 - -
21/06:13am 24.5 - - - - E 39 44 21 24 1016.1 - -
21/06:00am 24.4 - - - - SE 33 44 18 24 1016.0 1015.8 -
21/05:30am 24.5 - - - - SE 33 46 18 25 1015.8 - -
21/05:07am 24.4 - - - - E 28 46 15 25 1015.7 - -
21/05:00am 24.4 - - - - SE 33 46 18 25 1015.6 1015.4 -
21/04:50am 24.4 - - - - SE 33 44 18 24 1015.5 - -
21/04:42am 24.4 - - - - ENE 39 44 21 24 1015.4 - -
21/04:32am 24.4 - - - - SE 35 44 19 24 1015.4 - -
21/04:30am 24.4 - - - - E 37 46 20 25 1015.4 - -
21/04:29am 24.5 - - - - E 37 46 20 25 1015.4 - -
21/04:28am 24.4 - - - - ENE 39 46 21 25 1015.4 - -
21/04:12am 24.5 - - - - SE 35 48 19 26 1015.5 - -
21/04:08am 24.4 - - - - E 41 46 22 25 1015.5 - -
21/04:07am 24.4 - - - - ESE 37 46 20 25 1015.5 - -
21/04:01am 24.5 - - - - SSE 35 46 19 25 1015.5 - -
21/04:00am 24.5 - - - - SE 28 46 15 25 1015.5 1015.3 -
21/03:58am 24.3 - - - - E 37 46 20 25 1015.5 - -
21/03:43am 24.3 - - - - SE 28 44 15 24 1015.3 - -
21/03:36am 24.6 - - - - E 37 46 20 25 1015.3 - -
21/03:30am 24.2 - - - - SSE 32 46 17 25 1015.3 - -
21/03:00am 24.4 - - - - SE 28 46 15 25 1015.4 1015.4 -
21/02:40am 24.4 - - - - SSE 28 46 15 25 1015.4 - -
21/02:30am 24.5 - - - - SE 37 50 20 27 1015.5 - -
21/02:20am 24.5 - - - - SE 41 50 22 27 1015.6 - -
21/02:17am 24.3 - - - - E 39 48 21 26 1015.6 - -
21/02:09am 24.5 - - - - SSE 33 50 18 27 1015.7 - -
21/02:00am 24.5 - - - - ESE 41 50 22 27 1015.8 1015.6 -
21/01:54am 24.5 - - - - SE 39 48 21 26 1015.7 - -
21/01:53am 24.4 - - - - E 39 48 21 26 1015.7 - -
21/01:52am 24.5 - - - - ENE 41 48 22 26 1015.7 - -
21/01:45am 24.5 - - - - ESE 41 48 22 26 1015.8 - -
21/01:42am 24.6 - - - - SSE 32 46 17 25 1015.8 - -
21/01:36am 24.6 - - - - E 37 50 20 27 1015.9 - -
21/01:34am 24.5 - - - - SE 35 50 19 27 1015.9 - -
21/01:32am 24.6 - - - - NE 41 52 22 28 1015.9 - -
21/01:30am 24.3 - - - - SE 39 52 21 28 1016.0 - -
21/01:28am 24.5 - - - - SE 43 52 23 28 1015.9 - -
21/01:25am 24.3 - - - - NE 41 52 22 28 1016.0 - -
21/01:18am 24.4 - - - - SE 33 52 18 28 1016.1 - -
21/01:14am 24.6 - - - - SSE 33 50 18 27 1016.1 - -
21/01:01am 24.5 - - - - ENE 41 48 22 26 1016.2 - -
21/01:00am 24.6 - - - - E 37 48 20 26 1016.2 1016.2 -
21/12:50am 24.6 - - - - E 37 46 20 25 1016.3 - -
21/12:45am 24.6 - - - - ESE 37 50 20 27 1016.3 - -
21/12:43am 24.4 - - - - ENE 37 50 20 27 1016.3 - -
21/12:37am 24.6 - - - - SE 41 50 22 27 1016.4 - -
21/12:35am 24.6 - - - - ENE 39 50 21 27 1016.4 - -
21/12:30am 24.4 - - - - ESE 35 50 19 27 1016.4 - -
21/12:28am 24.5 - - - - ESE 35 46 19 25 1016.5 - -
21/12:23am 24.8 - - - - ENE 37 50 20 27 1016.6 - -
21/12:22am 24.7 - - - - NE 37 50 20 27 1016.6 - -
21/12:19am 24.6 - - - - E 41 52 22 28 1016.6 - -
21/12:00am 24.8 - - - - NE 43 52 23 28 1016.9 1016.9 -
 
Date/Time
EST
Temp
°C
App
Temp
°C
Dew
Point
Rel
Hum
%
Delta-T
°C
Wind Press
QNH
hPa
Press
MSL
hPa
Rain
since 9 am
mm
Dir
 
Spd
km/h
Gust
km/h
Spd
kts
Gust
kts
20/11:57pm 24.6 - - - - SE 33 52 18 28 1016.9 - -
20/11:55pm 24.9 - - - - SSE 32 52 17 28 1016.9 - -
20/11:51pm 24.8 - - - - ESE 41 52 22 28 1017.0 - -
20/11:50pm 24.8 - - - - NE 43 52 23 28 1017.0 - -
20/11:44pm 24.7 - - - - NNE 43 52 23 28 1016.9 - -
20/11:43pm 24.7 - - - - E 39 52 21 28 1017.0 - -
20/11:42pm 24.8 - - - - SE 39 52 21 28 1017.0 - -
20/11:41pm 24.9 - - - - ENE 41 52 22 28 1017.1 - -
20/11:40pm 24.8 - - - - NNE 43 52 23 28 1017.0 - -
20/11:38pm 24.6 - - - - E 39 50 21 27 1017.1 - -
20/11:33pm 24.8 - - - - ESE 39 50 21 27 1017.2 - -
20/11:30pm 24.9 - - - - ENE 37 48 20 26 1017.2 - -
20/11:26pm 24.7 - - - - ENE 39 48 21 26 1017.2 - -
20/11:24pm 24.6 - - - - SE 35 46 19 25 1017.3 - -
20/11:03pm 24.7 - - - - ENE 39 52 21 28 1017.4 - -
20/11:00pm 24.7 - - - - E 41 52 22 28 1017.4 1017.4 -
20/10:58pm 24.7 - - - - ENE 41 52 22 28 1017.4 - -
20/10:53pm 24.8 - - - - SE 35 52 19 28 1017.5 - -
20/10:49pm 24.7 - - - - E 39 52 21 28 1017.4 - -
20/10:30pm 24.8 - - - - ESE 41 50 22 27 1017.5 - -
20/10:29pm 24.9 - - - - SE 41 48 22 26 1017.5 - -
20/10:22pm 24.8 - - - - E 37 50 20 27 1017.6 - -
20/10:20pm 24.9 - - - - NE 41 50 22 27 1017.6 - -
20/10:13pm 24.8 - - - - E 39 50 21 27 1017.6 - -
20/10:06pm 25.0 - - - - ESE 33 50 18 27 1017.7 - -
20/10:04pm 24.9 - - - - NE 39 50 21 27 1017.7 - -
20/10:01pm 24.8 - - - - ESE 35 46 19 25 1017.8 - -
20/10:00pm 24.8 - - - - E 39 46 21 25 1017.7 1017.6 -
20/09:56pm 24.7 - - - - NE 35 48 19 26 1017.7 - -
20/09:44pm 25.0 - - - - E 39 50 21 27 1017.6 - -
20/09:41pm 24.9 - - - - NNE 39 50 21 27 1017.6 - -
20/09:36pm 24.7 - - - - ESE 39 50 21 27 1017.5 - -
20/09:34pm 24.9 - - - - NE 39 48 21 26 1017.5 - -
20/09:30pm 24.9 - - - - E 37 46 20 25 1017.5 - -
20/09:13pm 24.9 - - - - ENE 37 44 20 24 1017.4 - -
20/09:00pm 25.2 - - - - ESE 41 52 22 28 1017.3 1017.2 -
20/08:57pm 25.0 - - - - ESE 41 52 22 28 1017.3 - -
20/08:52pm 24.7 - - - - ENE 41 50 22 27 1017.2 - -
20/08:48pm 24.8 - - - - ESE 43 50 23 27 1017.2 - -
20/08:39pm 24.8 - - - - ENE 39 50 21 27 1017.2 - -
20/08:34pm 24.8 - - - - ESE 37 50 20 27 1017.2 - -
20/08:33pm 24.9 - - - - ENE 37 46 20 25 1017.2 - -
20/08:32pm 24.9 - - - - NNE 37 46 20 25 1017.2 - -
20/08:30pm 24.9 - - - - E 39 46 21 25 1017.2 - -
20/08:28pm 24.7 - - - - E 41 48 22 26 1017.2 - -
20/08:27pm 24.8 - - - - ESE 41 48 22 26 1017.1 - -
20/08:22pm 24.9 - - - - NE 39 48 21 26 1017.0 - -
20/08:21pm 24.8 - - - - NNE 41 48 22 26 1017.0 - -
20/08:17pm 25.0 - - - - E 37 46 20 25 1017.0 - -
20/08:13pm 24.8 - - - - ENE 39 50 21 27 1016.9 - -
20/08:04pm 24.9 - - - - ESE 37 50 20 27 1016.8 - -
20/08:02pm 25.1 - - - - SE 35 50 19 27 1016.9 - -
20/08:00pm 25.0 - - - - ENE 39 50 21 27 1016.8 1016.7 -
20/07:54pm 24.9 - - - - NE 43 50 23 27 1016.8 - -
20/07:52pm 25.0 - - - - ESE 35 50 19 27 1016.8 - -
20/07:34pm 24.9 - - - - ENE 37 50 20 27 1016.7 - -
20/07:06pm 24.9 - - - - E 35 50 19 27 1016.4 - -
20/07:04pm 24.7 - - - - NE 37 50 20 27 1016.3 - -
20/07:00pm 24.9 - - - - ENE 37 52 20 28 1016.3 1016.0 -
20/06:47pm 24.8 - - - - ENE 39 54 21 29 1016.1 - -
20/06:46pm 24.9 - - - - NNE 41 54 22 29 1016.1 - -
20/06:30pm 24.9 - - - - E 41 54 22 29 1016.0 - -
20/06:27pm 24.9 - - - - ENE 43 54 23 29 1015.9 - -
20/06:25pm 24.8 - - - - ESE 37 54 20 29 1015.9 - -
20/06:21pm 24.8 - - - - E 44 54 24 29 1015.8 - -
20/06:19pm 24.7 - - - - ESE 37 54 20 29 1015.9 - -
20/06:12pm 24.7 - - - - E 46 54 25 29 1015.7 - -
20/06:09pm 24.7 - - - - NE 44 54 24 29 1015.8 - -
20/06:00pm 24.8 - - - - E 43 52 23 28 1015.8 1015.6 -
20/05:59pm 25.0 - - - - E 41 52 22 28 1015.8 - -
20/05:58pm 25.0 - - - - ENE 43 52 23 28 1015.7 - -
20/05:56pm 25.1 - - - - ESE 39 54 21 29 1015.8 - -
20/05:54pm 24.7 - - - - ENE 44 54 24 29 1015.7 - -
20/05:50pm 24.8 - - - - E 43 54 23 29 1015.7 - -
20/05:44pm 24.9 - - - - ENE 41 54 22 29 1015.7 - -
20/05:30pm 24.7 - - - - SE 43 56 23 30 1015.5 - -
20/05:19pm 24.9 - - - - SE 39 52 21 28 1015.4 - -
20/05:17pm 25.0 - - - - E 39 52 21 28 1015.3 - -
20/05:05pm 25.0 - - - - SE 39 50 21 27 1015.2 - -
20/05:03pm 24.8 - - - - E 43 50 23 27 1015.1 - -
20/05:00pm 24.9 - - - - SE 43 50 23 27 1015.1 1014.9 -
20/04:30pm 25.1 - - - - SE 39 50 21 27 1014.9 - -
20/04:00pm 24.8 - - - - SE 39 56 21 30 1014.7 1014.6 -
20/03:37pm 24.8 - - - - SE 39 52 21 28 1014.7 - -
20/03:35pm 24.8 - - - - ENE 35 50 19 27 1014.7 - -
20/03:30pm 25.1 - - - - SSE 39 54 21 29 1014.7 - -
20/03:02pm 24.8 - - - - SSE 41 59 22 32 1014.8 - -
20/03:00pm 24.7 - - - - SE 43 59 23 32 1014.8 1014.7 -
20/02:30pm 24.7 - - - - SE 43 52 23 28 1015.0 - -
20/02:00pm 24.7 - - - - SE 44 52 24 28 1015.3 1015.2 -
20/01:57pm 25.0 - - - - SSE 41 54 22 29 1015.3 - -
20/01:43pm 24.6 - - - - ESE 43 56 23 30 1015.4 - -
20/01:30pm 24.7 - - - - SE 43 52 23 28 1015.5 - -
20/01:00pm 24.8 - - - - SSE 44 56 24 30 1015.9 1015.9 -
20/12:30pm 24.8 - - - - SE 44 56 24 30 1016.4 - -
20/12:00pm 24.8 - - - - SE 43 59 23 32 1016.7 1016.8 -
20/11:30am 24.9 - - - - SSE 41 54 22 29 1017.0 - -
20/11:15am 24.8 - - - - SE 46 57 25 31 1017.1 - -
20/11:13am 24.7 - - - - ENE 48 57 26 31 1017.0 - -
20/11:08am 24.7 - - - - SE 44 57 24 31 1017.1 - -
20/11:06am 24.7 - - - - ENE 46 57 25 31 1017.1 - -
20/11:00am 24.8 - - - - ESE 46 54 25 29 1017.1 1017.1 -
20/10:46am 24.8 - - - - ESE 43 61 23 33 1017.2 - -
20/10:30am 25.0 - - - - ESE 46 57 25 31 1017.4 - -
20/10:00am 24.7 - - - - ESE 44 57 24 31 1017.6 1017.4 -
20/09:30am 24.8 - - - - SE 43 56 23 30 1017.7 - -
20/09:00am 24.8 - - - - ESE 44 56 24 30 1017.8 1017.7 -
20/08:59am 24.7 - - - - SE 44 56 24 30 1017.8 - -
20/08:41am 25.0 - - - - E 41 54 22 29 1017.9 - -
20/08:39am 25.1 - - - - SE 41 54 22 29 1017.9 - -
20/08:37am 25.0 - - - - E 37 54 20 29 1017.9 - -
20/08:30am 24.8 - - - - SE 43 52 23 28 1017.9 - -
20/08:18am 25.0 - - - - SSE 37 54 20 29 1017.8 - -
20/08:00am 24.8 - - - - SE 44 56 24 30 1017.5 1017.2 -
20/07:30am 25.0 - - - - SE 46 57 25 31 1017.3 - -
20/07:00am 24.9 - - - - ESE 48 57 26 31 1016.7 1016.4 -
20/06:30am 24.8 - - - - SE 44 54 24 29 1016.5 - -
20/06:21am 24.7 - - - - SSE 44 56 24 30 1016.4 - -
20/06:18am 24.7 - - - - ESE 44 59 24 32 1016.3 - -
20/06:13am 24.8 - - - - SSE 44 59 24 32 1016.2 - -
20/06:11am 24.7 - - - - E 48 59 26 32 1016.1 - -
20/06:00am 24.9 - - - - SE 44 57 24 31 1016.1 1016.0 -
20/05:30am 24.7 - - - - SSE 46 59 25 32 1015.8 - -
20/05:19am 24.7 - - - - SE 46 57 25 31 1015.7 - -
20/05:16am 24.7 - - - - E 48 59 26 32 1015.6 - -
20/05:00am 24.9 - - - - SE 44 56 24 30 1015.5 1015.4 -
20/04:59am 24.7 - - - - SSE 46 56 25 30 1015.5 - -
20/04:42am 24.8 - - - - SSE 46 56 25 30 1015.4 - -
20/04:37am 24.7 - - - - ESE 46 57 25 31 1015.4 - -
20/04:30am 24.9 - - - - SE 44 63 24 34 1015.3 - -
20/04:00am 24.7 - - - - SE 41 61 22 33 1015.3 1015.2 -
20/03:56am 24.6 - - - - SE 41 61 22 33 1015.2 - -
20/03:46am 24.8 - - - - SE 43 59 23 32 1015.3 - -
20/03:44am 24.9 - - - - E 50 59 27 32 1015.2 - -
20/03:34am 24.8 - - - - SSE 37 56 20 30 1015.1 - -
20/03:30am 24.6 - - - - SSE 35 52 19 28 1015.2 - -
20/03:00am 24.8 - - - - SE 43 59 23 32 1015.2 1015.2 -
20/02:34am 24.6 - - - - SE 37 61 20 33 1015.3 - -
20/02:32am 24.6 - - - - SSE 39 61 21 33 1015.3 - -
20/02:30am 24.9 - - - - E 50 63 27 34 1015.2 - -
20/02:27am 24.9 - - - - E 50 63 27 34 1015.2 - -
20/02:00am 24.9 - - - - SSE 43 61 23 33 1015.5 1015.6 -
20/01:36am 24.6 - - - - SE 35 54 19 29 1015.8 - -
20/01:30am 24.6 - - - - SE 37 54 20 29 1015.9 - -
20/01:03am 24.9 - - - - SE 37 56 20 30 1016.2 - -
20/01:00am 24.9 - - - - SSE 39 56 21 30 1016.2 1016.2 -
20/12:30am 25.0 - - - - SE 44 63 24 34 1016.6 - -
20/12:19am 25.1 - - - - SSE 43 61 23 33 1016.8 - -
20/12:00am 25.0 - - - - SE 44 57 24 31 1016.9 1016.9 -
 
Date/Time
EST
Temp
°C
App
Temp
°C
Dew
Point
Rel
Hum
%
Delta-T
°C
Wind Press
QNH
hPa
Press
MSL
hPa
Rain
since 9 am
mm
Dir
 
Spd
km/h
Gust
km/h
Spd
kts
Gust
kts
19/11:39pm 24.7 - - - - SE 44 63 24 34 1017.1 - -
19/11:30pm 24.7 - - - - SE 50 63 27 34 1017.2 - -
19/11:24pm 24.7 - - - - ESE 48 59 26 32 1017.3 - -
19/11:00pm 24.8 - - - - SSE 43 65 23 35 1017.4 1017.4 -
19/10:59pm 24.8 - - - - SSE 46 65 25 35 1017.5 - -
19/10:30pm 24.9 - - - - SSE 43 57 23 31 1017.5 - -
19/10:00pm 24.9 - - - - SSE 44 57 24 31 1017.6 1017.5 -
19/09:43pm 24.9 - - - - SSE 43 61 23 33 1017.6 - -
19/09:30pm 24.8 - - - - SE 44 59 24 32 1017.6 - -
19/09:11pm 24.8 - - - - SE 37 57 20 31 1017.5 - -
19/09:10pm 24.9 - - - - SE 35 57 19 31 1017.5 - -
19/09:03pm 24.8 - - - - E 46 61 25 33 1017.3 - -
19/09:00pm 25.1 - - - - SE 44 61 24 33 1017.3 1017.1 -
19/08:42pm 24.9 - - - - ESE 41 59 22 32 1017.1 - -
19/08:39pm 24.9 - - - - SE 46 59 25 32 1017.1 - -
19/08:30pm 24.9 - - - - E 41 57 22 31 1017.1 - -
19/08:28pm 24.8 - - - - E 43 57 23 31 1017.0 - -
19/08:27pm 24.8 - - - - SE 41 57 22 31 1017.0 - -
19/08:23pm 24.7 - - - - NE 43 57 23 31 1017.0 - -
19/08:00pm 25.3 - - - - SE 43 56 23 30 1017.0 1016.8 -
19/07:32pm 24.9 - - - - ESE 44 59 24 32 1016.7 - -
19/07:30pm 25.1 - - - - SSE 43 59 23 32 1016.7 - -
19/07:00pm 25.0 - - - - SE 46 59 25 32 1016.4 1016.2 -
19/06:30pm 25.0 - - - - SSE 46 65 25 35 1016.0 - -
19/06:08pm 25.0 - - - - SE 43 61 23 33 1015.9 - -
19/06:00pm 24.9 - - - - SE 44 61 24 33 1015.8 1015.6 -
19/05:30pm 24.9 - - - - SSE 46 59 25 32 1015.6 - -
19/05:00pm 25.0 - - - - SSE 48 67 26 36 1015.2 1015.0 -
19/04:59pm 24.8 - - - - SSE 48 67 26 36 1015.2 - -
19/04:30pm 24.9 - - - - SE 48 61 26 33 1014.9 - -
19/04:09pm 24.9 - - - - SSE 46 65 25 35 1014.8 - -
19/04:00pm 24.6 - - - - SSE 39 61 21 33 1014.8 1014.7 -
19/03:30pm 24.6 - - - - SSE 41 59 22 32 1014.8 - -
19/03:00pm 24.6 - - - - SSE 44 59 24 32 1014.9 1014.8 -
19/02:30pm 24.6 - - - - SSE 48 57 26 31 1014.9 - -
19/02:00pm 24.7 - - - - SSE 44 57 24 31 1015.0 1015.0 -
19/01:30pm 24.7 - - - - SSE 46 63 25 34 1015.3 - -
19/01:00pm 24.3 - - - - SE 39 61 21 33 1015.6 1015.7 -
19/12:49pm 24.5 - - - - SE 39 57 21 31 1015.9 - -
19/12:32pm 24.4 - - - - SSE 37 50 20 27 1016.1 - -
19/12:30pm 24.3 - - - - ESE 43 50 23 27 1016.1 - -
19/12:28pm 24.2 - - - - ENE 44 50 24 27 1016.1 - -
19/12:00pm 24.2 - - - - ESE 43 54 23 29 1016.7 1016.6 -
19/11:47am 24.1 - - - - ESE 43 56 23 30 1016.7 - -
19/11:30am 24.3 - - - - SSE 41 56 22 30 1016.9 - -
19/11:28am 24.5 - - - - SE 39 54 21 29 1016.9 - -
19/11:20am 24.3 - - - - E 43 52 23 28 1017.0 - -
19/11:00am 24.5 - - - - SSE 30 57 16 31 1017.2 1017.3 -
19/10:58am 24.7 - - - - SE 37 50 20 27 1017.3 - -
19/10:46am 24.5 - - - - E 30 39 16 21 1017.5 - -
19/10:36am 24.0 - - - - SE 39 57 21 31 1017.5 - -
19/10:30am 24.0 - - - - SE 44 57 24 31 1017.6 - -
19/10:17am 23.9 - - - - SE 37 56 20 30 1017.6 - -
19/10:16am 24.1 - - - - SE 37 54 20 29 1017.7 - -
19/10:00am 24.2 - - - - SE 24 32 13 17 1017.7 1017.6 -
19/09:36am 24.1 - - - - ENE 28 44 15 24 1017.9 - -
19/09:30am 24.0 - - - - E 37 59 20 32 1017.9 - -
19/09:26am 24.2 - - - - E 35 65 19 35 1017.9 - -
19/09:24am 24.0 - - - - ENE 39 70 21 38 1017.9 - -
19/09:11am 23.4 - - - - ESE 63 72 34 39 1017.6 - -
19/09:02am 23.3 - - - - E 52 70 28 38 1017.6 - -
19/09:00am 24.3 - - - - E 50 67 27 36 1017.7 1017.7 -
19/08:46am 24.3 - - - - E 50 59 27 32 1017.7 - -
19/08:40am 24.9 - - - - SE 39 48 21 26 1017.9 - -
19/08:34am 25.1 - - - - ENE 37 41 20 22 1017.9 - -
19/08:30am 25.0 - - - - SE 32 41 17 22 1017.9 - -
19/08:16am 25.1 - - - - ESE 35 43 19 23 1017.7 - -
19/08:05am 25.1 - - - - SSE 37 43 20 23 1017.6 - -
19/08:03am 25.2 - - - - ESE 37 43 20 23 1017.7 - -
19/08:00am 25.0 - - - - ESE 35 43 19 23 1017.7 1017.6 -
19/07:30am 25.1 - - - - ESE 35 43 19 23 1017.6 - -

Other Formats:

Comma delimited format used in spreadsheet applications
http://www.bom.gov.au/fwo/IDQ60801/IDQ60801.95288.axf

JavaScript Object Notation format (JSON) in row-major order
http://www.bom.gov.au/fwo/IDQ60801/IDQ60801.95288.json